x

West Sea Otter (46204) Wave Buoy

2:00pm - Sat 1st Oct 2016 All times are PDT. -7 hours from GMT.

  • Sig Wave height 2.6ft
  • Peak Period 8s
  • Wind
    11mph, 13mph gusts
  • Sea Temp 56°f
  • 空気 Temp 53°f
  • Sea Pressure 1012.6mb
  • West Sea Otter
  • West Sea Otter

More Historic Weather Station data

Upgrade to MSW Pro to gain access to the past 30 days of data for over 8000 Wavebouys and Weather Stations around the globe.

Join Pro

Comparision Forecast

View Surf forecast
   
Sat 10/01 2:00pm 2.5ft 8s 11 13 mph 1012.6mb 56f 53f
1:00pm 2.5ft 8s 9 11 mph 1012.8mb 55f 53f
12:00pm 2.5ft 8s 9
mph
1012.8mb 55f 53f
11:00am 2.5ft 7s 7 9 mph 1012.8mb 55f 53f
10:00am 2ft 8s 4 7 mph 1012.9mb 55f 53f
9:00am 2.5ft 8s 7
mph
1013mb 54f 52f
8:00am 2.5ft 8s 9 11 mph 1012.6mb 54f 51f
7:00am 2ft 8s 9 11 mph 1012.5mb 54f 52f
6:00am 2ft 8s 7 9 mph 1012.3mb 54f 51f
5:00am 2.5ft 10s 4 7 mph 1012mb 55f 52f
4:00am 2.5ft 8s 9 11 mph 1011.9mb 55f 51f
3:00am 2.5ft 9s 9 11 mph 1012mb 55f 51f
2:00am 2.5ft 9s 11 13 mph 1012.2mb 55f 51f
1:00am 2.5ft 8s 11 13 mph 1012.4mb 55f 52f
12:00am 3ft 9s 11 13 mph 1012.6mb 54f 52f
Fri 09/30 11:00pm 3.5ft 8s 11 13 mph 1012.8mb 54f 52f
10:00pm 3.5ft 8s 11 13 mph 1013.2mb 54f 52f
9:00pm 3.5ft 8s 9 11 mph 1013.5mb 54f 53f
8:00pm 3.5ft 9s 9 11 mph 1013.6mb 54f 53f
7:00pm 3.5ft 9s 4 9 mph 1013.8mb 55f 53f
6:00pm 3ft 10s 7 9 mph 1014.1mb 56f 54f
5:00pm 3ft 8s 7 9 mph 1014.5mb 56f 54f
3:00pm 3.5ft 9s 4
mph
1015.2mb 56f 53f
2:00pm 4ft 10s 4
mph
1015.7mb 56f 53f
1:00pm 3.5ft 10s 4 7 mph 1016.3mb 55f 53f
12:00pm 4ft 9s 4 9 mph 1016.6mb 56f 53f
11:00am 3.5ft 10s 4 7 mph 1016.6mb 56f 53f
10:00am 3.5ft 10s 4
mph
1016.9mb 55f 53f
9:00am 3.5ft 9s 2 4 mph 1017.1mb 55f 53f
8:00am 3.5ft 10s 2 4 mph 1017.3mb 55f 52f
7:00am 3.5ft 10s 4 7 mph 1017.4mb 55f 52f
6:00am 3.5ft 9s 4 7 mph 1017.5mb 55f 52f
5:00am 3.5ft 11s 7 9 mph 1017.7mb 55f 52f
4:00am 3.5ft 10s 7 9 mph 1017.9mb 55f 52f
3:00am 3.5ft 10s 9 11 mph 1018.1mb 55f 53f
2:00am 4ft 10s 11 16 mph 1017.9mb 55f 53f
1:00am 4ft 9s 11 13 mph 1018.4mb 55f 52f
12:00am 4ft 10s 11 13 mph 1018.7mb 55f 52f
Thu 09/29 11:00pm 4.5ft 10s 11 13 mph 1019mb 55f 52f
10:00pm 4ft 10s 11 13 mph 1019.4mb 56f 52f
9:00pm 3.5ft 10s 11 13 mph 1019.8mb 56f 51f
8:00pm 3.5ft 9s 13
mph
1020mb 55f 49f
7:00pm 3.5ft 11s 13 16 mph 1020.2mb 55f 48f
6:00pm 3.5ft 11s 11 13 mph 1020.1mb 55f 48f
5:00pm 4.5ft 11s 9
mph
1020.1mb 56f 49f
4:00pm 4.5ft 10s 7 9 mph 1020.2mb 56f 51f
3:00pm 4.5ft 10s 4 7 mph 1020.4mb 56f 53f
2:00pm 4.5ft 10s 4 7 mph 1020.6mb 56f 53f
1:00pm 4.5ft 10s 7 9 mph 1020.5mb 55f 53f
12:00pm 5ft 9s 7 9 mph 1020.6mb 55f 53f
11:00am 5.5ft 9s 7 9 mph 1020.4mb 55f 53f
10:00am 5.5ft 10s 7 9 mph 1020.2mb 55f 53f
9:00am 5.5ft 10s 9 13 mph 1020mb 55f 53f
8:00am 5ft 9s 9 13 mph 1019.8mb 55f 53f
7:00am 4.5ft 10s 13 16 mph 1019.4mb 55f 52f
6:00am 4.5ft 10s 13 16 mph 1019.5mb 55f 52f
5:00am 5ft 9s 13 16 mph 1019.3mb 55f 52f
4:00am 4.5ft 10s 13 16 mph 1019.5mb 55f 52f
3:00am 4ft 10s 11 13 mph 1019.4mb 55f 53f
2:00am 4ft 10s 11 13 mph 1019.1mb 55f 52f
1:00am 4ft 8s 9 11 mph 1019.1mb 55f 52f
12:00am 3.5ft 8s 9 11 mph 1019.2mb 55f 52f
Wed 09/28 11:00pm 3.5ft 8s 9 11 mph 1019.2mb 55f 52f
10:00pm 3.5ft 8s 9
mph
1019.3mb 55f 51f
9:00pm 3ft 9s 7 9 mph 1019.6mb 55f 52f
8:00pm 3.5ft 8s 4 7 mph 1019.8mb 54f 52f
7:00pm 3.5ft 8s 7
mph
1019.9mb 55f 52f
6:00pm 3.5ft 8s 4 7 mph 1020.2mb 55f 52f
5:00pm 3ft 8s 4
mph
1020.7mb 55f 53f
4:00pm 3ft 9s 4 7 mph 1021.1mb 55f 52f
3:00pm 3ft 8s 7 9 mph 1021.4mb 55f 51f
2:00pm 3ft 9s 7 9 mph 1021.7mb 55f 50f
1:00pm 3.5ft 8s 4 9 mph 1022mb 53f 49f
12:00pm 3.5ft 9s 4 9 mph 1022.2mb 53f 47f
11:00am 4ft 8s 4 9 mph 1022.4mb 53f 47f
10:00am 3.5ft 8s 7 9 mph 1022.7mb 53f 48f
9:00am 3.5ft 8s 7 9 mph 1022.8mb 53f 48f
8:00am 3.5ft 8s 4
mph
1023mb 53f 52f
7:00am 3.5ft 9s 2 4 mph 1023.3mb 53f 51f
6:00am 4ft 8s 2
mph
1023.7mb 53f 51f
5:00am 4ft 8s 4 7 mph 1023.7mb 53f 51f
4:00am 3.5ft 8s 4
mph
1024mb 53f 51f
3:00am 3.5ft 8s 4
mph
1024.3mb 53f 52f
2:00am 4.5ft 8s 4
mph
1024.6mb 53f 52f
1:00am 4.5ft 8s 4 7 mph 1024.9mb 53f 52f
12:00am 4.5ft 10s 4
mph
1025.2mb 53f 52f
Tue 09/27 11:00pm 4.5ft 8s 2 4 mph 1025.3mb 53f 52f